createdAt,value
2018-11-28T00:00:03.322Z,0.00
2018-11-28T00:01:03.284Z,0.00
2018-11-28T00:02:03.271Z,0.00
2018-11-28T00:03:03.227Z,0.00
2018-11-28T00:04:03.199Z,0.00
2018-11-28T00:05:03.199Z,0.00
2018-11-28T00:06:03.167Z,0.00
2018-11-28T00:07:03.144Z,0.00
2018-11-28T00:08:03.071Z,0.00
2018-11-28T00:09:03.047Z,0.00
2018-11-28T00:10:03.046Z,0.00
2018-11-28T00:11:02.996Z,0.00
2018-11-28T00:12:02.946Z,0.00
2018-11-28T00:13:02.959Z,0.00
2018-11-28T00:14:02.861Z,0.00
2018-11-28T00:15:02.869Z,0.00
2018-11-28T00:16:02.855Z,0.00
2018-11-28T00:17:02.802Z,0.00
2018-11-28T00:18:02.850Z,0.00
2018-11-28T00:19:02.778Z,0.00
2018-11-28T00:20:02.757Z,0.00
2018-11-28T00:21:02.679Z,0.00
2018-11-28T00:22:02.625Z,0.00
2018-11-28T00:23:02.632Z,0.00
2018-11-28T00:24:02.625Z,0.00
2018-11-28T00:25:02.540Z,0.00
2018-11-28T00:26:02.542Z,0.00
2018-11-28T00:27:02.497Z,0.00
2018-11-28T00:28:02.456Z,0.00
2018-11-28T00:29:02.427Z,0.00
2018-11-28T00:30:02.397Z,0.00
2018-11-28T00:31:02.358Z,0.00
2018-11-28T00:32:02.335Z,0.00
2018-11-28T00:33:02.336Z,0.00
2018-11-28T00:34:02.252Z,0.00
2018-11-28T00:35:02.263Z,0.00
2018-11-28T00:36:02.214Z,0.00
2018-11-28T00:37:02.169Z,0.00
2018-11-28T00:38:02.152Z,0.00
2018-11-28T00:39:02.132Z,0.00
2018-11-28T00:40:02.113Z,0.00
2018-11-28T00:41:02.083Z,0.00
2018-11-28T00:42:02.036Z,0.00
2018-11-28T00:43:01.980Z,0.00
2018-11-28T00:44:01.950Z,0.00
2018-11-28T00:45:01.900Z,0.00
2018-11-28T00:46:01.931Z,0.00
2018-11-28T00:47:01.900Z,0.00
2018-11-28T00:48:01.820Z,0.00
2018-11-28T00:49:01.819Z,0.00
2018-11-28T00:50:01.816Z,0.00
2018-11-28T00:51:01.767Z,0.00
2018-11-28T00:52:01.736Z,0.00
2018-11-28T00:53:01.702Z,0.00
2018-11-28T00:54:01.666Z,0.00
2018-11-28T00:55:01.614Z,0.00
2018-11-28T00:56:01.634Z,0.00
2018-11-28T00:57:01.596Z,0.00
2018-11-28T00:58:01.519Z,0.00
2018-11-28T00:59:01.528Z,0.00
2018-11-28T01:00:01.448Z,0.00
2018-11-28T01:01:01.400Z,0.00
2018-11-28T01:02:01.425Z,0.00
2018-11-28T01:03:01.394Z,0.00
2018-11-28T01:04:01.354Z,0.00
2018-11-28T01:05:01.343Z,0.00
2018-11-28T01:06:01.358Z,0.00
2018-11-28T01:07:01.240Z,0.00
2018-11-28T01:08:01.236Z,0.00
2018-11-28T01:09:01.155Z,0.00
2018-11-28T01:10:01.158Z,0.00
2018-11-28T01:11:01.147Z,0.00
2018-11-28T01:12:01.097Z,0.00
2018-11-28T01:13:01.075Z,0.00
2018-11-28T01:14:01.082Z,0.00
2018-11-28T01:15:01.038Z,0.00
2018-11-28T01:16:00.959Z,0.00
2018-11-28T01:17:00.920Z,0.00
2018-11-28T01:18:00.959Z,0.00
2018-11-28T01:19:00.896Z,0.00
2018-11-28T01:20:00.860Z,0.00
2018-11-28T01:21:00.835Z,0.00
2018-11-28T01:22:00.803Z,0.00
2018-11-28T01:23:00.817Z,0.00
2018-11-28T01:24:00.743Z,0.00
2018-11-28T01:25:00.726Z,0.00
2018-11-28T01:26:00.652Z,0.00
2018-11-28T01:27:00.645Z,0.00
2018-11-28T01:28:00.566Z,0.00
2018-11-28T01:29:00.577Z,0.00
2018-11-28T01:30:00.538Z,0.00
2018-11-28T01:31:00.518Z,0.00
2018-11-28T01:32:00.468Z,0.00
2018-11-28T01:33:00.449Z,0.00
2018-11-28T01:34:00.392Z,0.00
2018-11-28T01:35:00.326Z,0.00
2018-11-28T01:36:00.316Z,0.00
2018-11-28T01:37:00.326Z,0.00
2018-11-28T01:38:00.284Z,0.00
2018-11-28T01:39:00.264Z,0.00
2018-11-28T01:40:00.235Z,0.00
2018-11-28T01:41:00.207Z,0.00
2018-11-28T01:42:00.210Z,0.00
2018-11-28T01:43:00.083Z,0.00
2018-11-28T01:44:00.082Z,0.00
2018-11-28T01:45:00.123Z,0.00
2018-11-28T01:46:00.007Z,0.00
2018-11-28T01:47:00.037Z,0.00
2018-11-28T01:47:59.942Z,0.00
2018-11-28T01:48:59.938Z,0.00
2018-11-28T01:49:59.896Z,0.00
2018-11-28T01:50:59.935Z,0.00
2018-11-28T01:51:59.835Z,0.00
2018-11-28T01:52:59.768Z,0.00
2018-11-28T01:53:59.803Z,0.00
2018-11-28T01:54:59.765Z,0.00
2018-11-28T01:55:59.745Z,0.00
2018-11-28T01:56:59.648Z,0.00
2018-11-28T01:57:59.656Z,0.00
2018-11-28T01:58:59.636Z,0.00
2018-11-28T01:59:59.579Z,0.00
2018-11-28T02:00:59.570Z,0.00
2018-11-28T02:01:59.532Z,0.00
2018-11-28T02:02:59.509Z,0.00
2018-11-28T02:03:59.454Z,0.00
2018-11-28T02:04:59.483Z,0.00
2018-11-28T02:05:59.425Z,0.00
2018-11-28T02:06:59.374Z,0.00
2018-11-28T02:07:59.321Z,0.00
2018-11-28T02:08:59.327Z,0.00
2018-11-28T02:09:59.275Z,0.00
2018-11-28T02:10:59.250Z,0.00
2018-11-28T02:11:59.224Z,0.00
2018-11-28T02:12:59.209Z,0.00
2018-11-28T02:13:59.165Z,0.00
2018-11-28T02:14:59.153Z,0.00
2018-11-28T02:15:59.103Z,0.00
2018-11-28T02:16:59.043Z,0.00
2018-11-28T02:17:59.040Z,0.00
2018-11-28T02:18:59.009Z,0.00
2018-11-28T02:19:58.929Z,0.00
2018-11-28T02:20:58.948Z,0.00
2018-11-28T02:21:58.899Z,0.00
2018-11-28T02:22:58.909Z,0.00
2018-11-28T02:23:58.858Z,0.00
2018-11-28T02:24:58.801Z,0.00
2018-11-28T02:25:58.781Z,0.00
2018-11-28T02:26:58.739Z,0.00
2018-11-28T02:27:58.710Z,0.00
2018-11-28T02:28:58.680Z,0.00
2018-11-28T02:29:58.656Z,0.00
2018-11-28T02:30:58.632Z,0.00
2018-11-28T02:31:58.599Z,0.00
2018-11-28T02:32:58.574Z,0.00
2018-11-28T02:33:58.499Z,0.00
2018-11-28T02:34:58.517Z,0.00
2018-11-28T02:35:58.428Z,0.00
2018-11-28T02:36:58.402Z,0.00
2018-11-28T02:37:58.431Z,0.00
2018-11-28T02:38:58.410Z,0.00
2018-11-28T02:39:58.394Z,0.00
2018-11-28T02:40:58.325Z,0.00
2018-11-28T02:41:58.318Z,0.00
2018-11-28T02:42:58.308Z,0.00
2018-11-28T02:43:58.219Z,0.00
2018-11-28T02:44:58.203Z,0.00
2018-11-28T02:45:58.142Z,0.00
2018-11-28T02:46:58.136Z,0.00
2018-11-28T02:47:58.135Z,0.00
2018-11-28T02:48:58.074Z,0.00
2018-11-28T02:49:58.016Z,0.00
2018-11-28T02:50:58.011Z,0.00
2018-11-28T02:51:57.983Z,0.00
2018-11-28T02:52:57.948Z,0.00
2018-11-28T02:53:57.932Z,0.00
2018-11-28T02:54:57.887Z,0.00
2018-11-28T02:55:57.893Z,0.00
2018-11-28T02:56:57.772Z,0.00
2018-11-28T02:57:57.775Z,0.00
2018-11-28T02:58:57.710Z,0.00
2018-11-28T02:59:57.697Z,0.00
2018-11-28T03:00:57.709Z,0.00
2018-11-28T03:01:57.680Z,0.00
2018-11-28T03:02:57.605Z,0.00
2018-11-28T03:03:57.555Z,0.00
2018-11-28T03:04:57.594Z,0.00
2018-11-28T03:05:57.524Z,0.00
2018-11-28T03:06:57.506Z,0.00
2018-11-28T03:07:57.427Z,0.00
2018-11-28T03:08:57.439Z,0.00
2018-11-28T03:09:57.431Z,0.00
2018-11-28T03:10:57.389Z,0.00
2018-11-28T03:11:57.358Z,0.00
2018-11-28T03:12:57.322Z,0.00
2018-11-28T03:13:57.335Z,0.00
2018-11-28T03:14:57.228Z,0.00
2018-11-28T03:15:57.199Z,0.00
2018-11-28T03:16:57.210Z,0.00
2018-11-28T03:17:57.203Z,0.00
2018-11-28T03:18:57.111Z,0.00
2018-11-28T03:19:57.089Z,0.00
2018-11-28T03:20:57.083Z,0.00
2018-11-28T03:23:29.731Z,0.00
2018-11-28T03:24:31.247Z,0.00
2018-11-28T03:25:30.514Z,0.00
2018-11-28T03:26:31.016Z,0.00
2018-11-28T03:27:30.971Z,0.00
2018-11-28T03:28:30.979Z,0.00
2018-11-28T03:29:30.562Z,0.00
2018-11-28T03:30:29.907Z,0.00
2018-11-28T03:31:30.375Z,0.00
2018-11-28T03:32:30.853Z,0.00
2018-11-28T03:33:30.295Z,0.00
2018-11-28T03:34:38.613Z,0.00
2018-11-28T03:36:34.235Z,0.00
2018-11-28T03:39:07.283Z,0.00
2018-11-28T03:40:15.475Z,0.00
2018-11-28T03:42:11.575Z,0.00
2018-11-28T03:43:20.018Z,0.00
2018-11-28T03:45:16.132Z,0.00
2018-11-28T03:48:19.951Z,0.00
2018-11-28T03:49:20.228Z,0.00
2018-11-28T03:50:20.804Z,0.00
2018-11-28T03:51:19.751Z,0.00
2018-11-28T03:52:19.382Z,0.00
2018-11-28T03:53:21.273Z,0.00
2018-11-28T03:54:20.311Z,0.00
2018-11-28T03:55:20.705Z,0.00
2018-11-28T03:56:20.768Z,0.00
2018-11-28T03:57:20.593Z,0.00
2018-11-28T03:58:20.594Z,0.00
2018-11-28T03:59:20.294Z,0.00
2018-11-28T04:00:19.978Z,0.00
2018-11-28T04:01:20.507Z,0.00
2018-11-28T04:02:20.974Z,0.00
2018-11-28T04:03:18.960Z,0.00
2018-11-28T04:04:28.786Z,0.00
2018-11-28T04:06:24.350Z,0.00
2018-11-28T04:07:33.364Z,0.00
2018-11-28T04:09:28.258Z,0.00
2018-11-28T04:10:37.155Z,0.00
2018-11-28T04:12:42.924Z,0.00
2018-11-28T04:13:41.180Z,0.00
2018-11-28T04:15:46.598Z,0.00
2018-11-28T04:16:45.489Z,0.00
2018-11-28T04:18:41.858Z,0.00
2018-11-28T04:19:42.190Z,0.00
2018-11-28T04:20:41.194Z,0.00
2018-11-28T04:21:41.702Z,0.00
2018-11-28T04:22:41.186Z,0.00
2018-11-28T04:23:41.712Z,0.00
2018-11-28T04:24:41.384Z,0.00
2018-11-28T04:25:41.039Z,0.00
2018-11-28T04:26:41.530Z,0.00
2018-11-28T04:27:41.283Z,0.00
2018-11-28T04:28:42.203Z,0.00
2018-11-28T04:29:41.419Z,0.00
2018-11-28T04:30:40.758Z,0.00
2018-11-28T04:31:41.723Z,0.00
2018-11-28T04:32:42.405Z,0.00
2018-11-28T04:33:49.922Z,0.00
2018-11-28T04:35:46.183Z,0.00
2018-11-28T04:36:45.611Z,0.00
2018-11-28T04:37:46.032Z,0.00
2018-11-28T04:38:45.873Z,0.00
2018-11-28T04:39:45.452Z,0.00
2018-11-28T04:40:45.361Z,0.00
2018-11-28T04:41:45.046Z,0.00
2018-11-28T04:42:44.874Z,0.00
2018-11-28T04:43:44.765Z,0.00
2018-11-28T04:44:45.420Z,0.00
2018-11-28T04:45:44.995Z,0.00
2018-11-28T04:46:44.626Z,0.00
2018-11-28T04:47:44.938Z,0.00
2018-11-28T04:48:44.911Z,0.00
2018-11-28T04:49:45.387Z,0.00
2018-11-28T04:50:44.903Z,0.00
2018-11-28T04:51:45.535Z,0.00
2018-11-28T04:52:45.304Z,0.00
2018-11-28T04:53:45.033Z,0.00
2018-11-28T04:54:45.099Z,0.00
2018-11-28T04:55:44.759Z,0.00
2018-11-28T04:56:44.922Z,0.00
2018-11-28T04:57:44.584Z,0.00
2018-11-28T04:58:44.813Z,0.00
2018-11-28T04:59:45.014Z,0.00
2018-11-28T05:00:44.508Z,0.00
2018-11-28T05:01:44.085Z,0.00
2018-11-28T05:02:43.943Z,0.00
2018-11-28T05:03:43.883Z,0.00
2018-11-28T05:04:43.919Z,0.00
2018-11-28T05:05:43.802Z,0.00
2018-11-28T05:06:43.757Z,0.00
2018-11-28T05:07:43.790Z,0.00
2018-11-28T05:08:43.746Z,0.00
2018-11-28T05:09:43.699Z,0.00
2018-11-28T05:10:43.653Z,0.00
2018-11-28T05:11:43.662Z,0.00
2018-11-28T05:12:43.565Z,0.00
2018-11-28T05:13:43.560Z,0.00
2018-11-28T05:14:43.564Z,0.00
2018-11-28T05:15:43.538Z,0.00
2018-11-28T05:16:43.481Z,0.00
2018-11-28T05:17:43.491Z,0.00
2018-11-28T05:18:43.427Z,0.00
2018-11-28T05:19:43.375Z,0.00
2018-11-28T05:20:43.375Z,0.00
2018-11-28T05:21:43.325Z,0.00
2018-11-28T05:22:43.295Z,0.00
2018-11-28T05:23:43.309Z,0.00
2018-11-28T05:24:43.270Z,0.00
2018-11-28T05:25:43.184Z,0.00
2018-11-28T05:26:43.175Z,0.00
2018-11-28T05:27:43.110Z,0.00
2018-11-28T05:28:43.150Z,0.00
2018-11-28T05:29:43.076Z,0.00
2018-11-28T05:30:43.020Z,0.00
2018-11-28T05:31:43.012Z,0.00
2018-11-28T05:32:44.018Z,0.00
2018-11-28T05:33:42.923Z,0.00
2018-11-28T05:34:42.972Z,0.00
2018-11-28T05:35:42.969Z,0.00
2018-11-28T05:36:42.949Z,0.00
2018-11-28T05:37:42.911Z,0.00
2018-11-28T05:38:42.904Z,0.00
2018-11-28T05:39:42.851Z,0.00
2018-11-28T05:40:42.777Z,0.00
2018-11-28T05:41:42.781Z,0.00
2018-11-28T05:42:42.680Z,0.00
2018-11-28T05:43:42.692Z,0.00
2018-11-28T05:44:42.650Z,0.00
2018-11-28T05:45:42.600Z,0.00
2018-11-28T05:46:42.602Z,0.00
2018-11-28T05:47:42.597Z,0.00
2018-11-28T05:48:42.519Z,0.00
2018-11-28T05:49:42.645Z,0.00
2018-11-28T05:50:42.551Z,0.00
2018-11-28T05:51:42.467Z,0.00
2018-11-28T05:52:42.382Z,0.00
2018-11-28T05:53:42.389Z,0.00
2018-11-28T05:54:42.371Z,0.00
2018-11-28T05:55:42.310Z,0.00
2018-11-28T05:56:42.277Z,0.00
2018-11-28T05:57:42.254Z,0.00
2018-11-28T05:58:42.209Z,0.00
2018-11-28T05:59:42.186Z,0.00
2018-11-28T06:00:42.151Z,0.00
2018-11-28T06:01:42.280Z,0.00
2018-11-28T06:02:42.085Z,0.00
2018-11-28T06:03:42.108Z,0.00
2018-11-28T06:04:42.032Z,0.00
2018-11-28T06:05:41.983Z,0.00
2018-11-28T06:06:41.952Z,0.00
2018-11-28T06:07:43.817Z,0.00
2018-11-28T06:08:41.902Z,0.00
2018-11-28T06:09:41.897Z,0.00
2018-11-28T06:10:41.855Z,0.00
2018-11-28T06:11:41.837Z,0.00
2018-11-28T06:12:41.799Z,0.00
2018-11-28T06:13:41.819Z,0.00
2018-11-28T06:14:41.710Z,0.00
2018-11-28T06:15:41.663Z,0.00
2018-11-28T06:16:41.678Z,0.00
2018-11-28T06:17:41.611Z,0.00
2018-11-28T06:18:41.575Z,0.00
2018-11-28T06:19:41.544Z,0.00
2018-11-28T06:20:41.555Z,0.00
2018-11-28T06:21:41.487Z,0.00
2018-11-28T06:22:41.496Z,0.00
2018-11-28T06:23:41.429Z,0.00
2018-11-28T06:24:41.455Z,0.00
2018-11-28T06:25:41.396Z,0.00
2018-11-28T06:26:41.366Z,0.00
2018-11-28T06:27:41.380Z,0.00
2018-11-28T06:28:41.282Z,0.00
2018-11-28T06:29:41.239Z,0.00
2018-11-28T06:30:41.205Z,0.00
2018-11-28T06:31:41.286Z,0.00
2018-11-28T06:32:41.870Z,0.00
2018-11-28T06:33:41.549Z,0.00
2018-11-28T06:34:43.021Z,0.00
2018-11-28T06:35:41.410Z,0.00
2018-11-28T06:36:41.669Z,0.00
2018-11-28T06:37:41.885Z,0.00
2018-11-28T06:38:42.161Z,0.00
2018-11-28T06:39:42.279Z,0.00
2018-11-28T06:40:41.787Z,0.00
2018-11-28T06:41:41.465Z,0.00
2018-11-28T06:42:41.591Z,0.00
2018-11-28T06:43:42.570Z,0.00
2018-11-28T06:44:43.164Z,0.00
2018-11-28T06:45:41.354Z,0.00
2018-11-28T06:46:42.054Z,0.00
2018-11-28T06:47:41.065Z,0.00
2018-11-28T06:48:41.369Z,0.00
2018-11-28T06:49:41.425Z,0.00
2018-11-28T06:50:41.590Z,0.00
2018-11-28T06:51:41.230Z,0.00
2018-11-28T06:52:41.738Z,0.00
2018-11-28T06:53:41.683Z,0.00
2018-11-28T06:54:41.681Z,0.00
2018-11-28T06:55:41.350Z,0.00
2018-11-28T06:56:40.725Z,0.00
2018-11-28T06:57:41.046Z,0.00
2018-11-28T06:58:41.673Z,0.00
2018-11-28T06:59:41.370Z,0.00
2018-11-28T07:00:41.186Z,0.00
2018-11-28T07:01:40.967Z,0.00
2018-11-28T07:02:41.033Z,0.00
2018-11-28T07:03:40.609Z,0.00
2018-11-28T07:04:41.425Z,0.00
2018-11-28T07:05:41.333Z,0.00
2018-11-28T07:06:40.704Z,0.00
2018-11-28T07:07:41.076Z,0.00
2018-11-28T07:08:41.431Z,0.00
2018-11-28T07:09:41.271Z,0.00
2018-11-28T07:10:41.345Z,0.00
2018-11-28T07:11:43.051Z,0.00
2018-11-28T07:12:41.483Z,0.00
2018-11-28T07:13:41.081Z,0.00
2018-11-28T07:14:43.360Z,0.00
2018-11-28T07:15:43.331Z,0.00
2018-11-28T07:16:56.505Z,0.00
2018-11-28T07:18:00.539Z,0.00
2018-11-28T07:21:02.052Z,0.00
2018-11-28T07:22:03.544Z,0.00
2018-11-28T07:23:04.150Z,0.00
2018-11-28T07:24:14.537Z,0.00
2018-11-28T07:27:44.978Z,0.00
2018-11-28T07:28:43.832Z,0.00
2018-11-28T07:29:43.249Z,0.00
2018-11-28T07:30:43.801Z,5.63
2018-11-28T07:33:34.011Z,5.63
2018-11-28T07:34:19.396Z,5.63
2018-11-28T07:39:09.786Z,5.63
2018-11-28T07:40:14.165Z,5.63
2018-11-28T07:45:45.414Z,5.63
2018-11-28T07:46:31.705Z,5.63
2018-11-28T07:47:29.114Z,5.63
2018-11-28T07:48:44.581Z,5.63
2018-11-28T07:49:30.252Z,5.63
2018-11-28T07:50:29.951Z,11.25
2018-11-28T07:51:31.616Z,11.25
2018-11-28T07:52:29.562Z,11.25
2018-11-28T07:53:29.100Z,11.25
2018-11-28T07:54:41.684Z,11.25
2018-11-28T07:55:33.199Z,11.25
2018-11-28T07:56:34.678Z,11.25
2018-11-28T07:57:29.184Z,11.25
2018-11-28T07:58:52.035Z,11.25
2018-11-28T08:01:21.236Z,11.25
2018-11-28T08:05:23.044Z,11.25
2018-11-28T08:06:23.339Z,16.88
2018-11-28T08:07:22.583Z,16.88
2018-11-28T08:08:23.375Z,16.88
2018-11-28T08:09:22.875Z,16.88
2018-11-28T08:10:23.085Z,16.88
2018-11-28T08:11:22.514Z,11.25
2018-11-28T08:12:23.135Z,11.25
2018-11-28T08:13:22.479Z,11.25
2018-11-28T08:14:22.568Z,11.25
2018-11-28T08:15:22.598Z,11.25
2018-11-28T08:16:22.722Z,11.25
2018-11-28T08:17:22.511Z,11.25
2018-11-28T08:18:22.829Z,11.25
2018-11-28T08:19:24.161Z,11.25
2018-11-28T08:20:23.273Z,11.25
2018-11-28T08:21:23.093Z,11.25
2018-11-28T08:22:23.398Z,16.88
2018-11-28T08:23:22.788Z,16.88
2018-11-28T08:24:22.871Z,16.88
2018-11-28T08:25:27.501Z,16.88
2018-11-28T08:26:23.662Z,16.88
2018-11-28T08:27:23.240Z,16.88
2018-11-28T08:28:22.877Z,16.88
2018-11-28T08:29:21.866Z,16.88
2018-11-28T08:30:22.814Z,22.50
2018-11-28T08:31:21.536Z,22.50
2018-11-28T08:32:22.055Z,22.50
2018-11-28T08:33:21.879Z,22.50
2018-11-28T08:34:21.608Z,22.50
2018-11-28T08:35:21.727Z,22.50
2018-11-28T08:36:22.636Z,22.50
2018-11-28T08:37:21.065Z,28.13
2018-11-28T08:38:20.980Z,28.13
2018-11-28T08:39:21.060Z,28.13
2018-11-28T08:40:20.959Z,28.13
2018-11-28T08:41:20.935Z,28.13
2018-11-28T08:42:20.877Z,28.13
2018-11-28T08:43:20.900Z,28.13
2018-11-28T08:44:20.844Z,22.50
2018-11-28T08:45:20.948Z,22.50
2018-11-28T08:46:20.876Z,22.50
2018-11-28T08:47:20.700Z,22.50
2018-11-28T08:48:20.700Z,22.50
2018-11-28T08:49:20.675Z,22.50
2018-11-28T08:50:20.631Z,22.50
2018-11-28T08:51:20.707Z,22.50
2018-11-28T08:52:20.584Z,22.50
2018-11-28T08:53:20.607Z,22.50
2018-11-28T08:54:20.640Z,22.50
2018-11-28T08:55:20.493Z,22.50
2018-11-28T08:56:20.462Z,22.50
2018-11-28T08:57:20.459Z,22.50
2018-11-28T08:58:20.440Z,22.50
2018-11-28T08:59:20.391Z,22.50
2018-11-28T09:00:20.347Z,22.50
2018-11-28T09:01:20.324Z,22.50
2018-11-28T09:02:20.337Z,22.50
2018-11-28T09:03:20.261Z,22.50
2018-11-28T09:04:20.244Z,22.50
2018-11-28T09:05:20.319Z,22.50
2018-11-28T09:06:20.159Z,22.50
2018-11-28T09:07:20.146Z,22.50
2018-11-28T09:08:20.132Z,28.13
2018-11-28T09:09:20.078Z,28.13
2018-11-28T09:10:20.057Z,28.13
2018-11-28T09:11:19.986Z,28.13
2018-11-28T09:12:19.992Z,28.13
2018-11-28T09:13:19.917Z,28.13
2018-11-28T09:14:19.952Z,28.13
2018-11-28T09:15:19.925Z,33.75
2018-11-28T09:16:19.899Z,33.75
2018-11-28T09:17:19.856Z,33.75
2018-11-28T09:18:19.832Z,39.38
2018-11-28T09:19:19.739Z,39.38
2018-11-28T09:20:19.890Z,39.38
2018-11-28T09:21:19.727Z,39.38
2018-11-28T09:23:51.459Z,45.00
2018-11-28T09:24:51.362Z,45.00
2018-11-28T09:25:51.355Z,45.00
2018-11-28T09:26:51.312Z,45.00
2018-11-28T09:27:51.361Z,45.00
2018-11-28T09:28:51.247Z,45.00
2018-11-28T09:29:51.281Z,45.00
2018-11-28T09:30:51.181Z,45.00
2018-11-28T09:31:51.191Z,45.00
2018-11-28T09:32:51.136Z,39.38
2018-11-28T09:33:51.200Z,39.38
2018-11-28T09:34:51.070Z,39.38
2018-11-28T09:35:51.112Z,39.38
2018-11-28T09:36:51.011Z,45.00
2018-11-28T09:37:50.983Z,45.00
2018-11-28T09:38:51.037Z,45.00
2018-11-28T09:39:50.922Z,45.00
2018-11-28T09:40:50.946Z,45.00
2018-11-28T09:41:50.868Z,45.00
2018-11-28T09:42:50.833Z,45.00
2018-11-28T09:43:50.805Z,45.00
2018-11-28T09:44:50.872Z,45.00
2018-11-28T09:45:50.742Z,45.00
2018-11-28T09:46:50.781Z,45.00
2018-11-28T09:47:50.793Z,45.00
2018-11-28T09:48:50.659Z,45.00
2018-11-28T09:49:50.703Z,45.00
2018-11-28T09:50:50.601Z,45.00
2018-11-28T09:51:50.614Z,45.00
2018-11-28T09:52:50.540Z,45.00
2018-11-28T09:53:50.531Z,45.00
2018-11-28T09:54:50.484Z,45.00
2018-11-28T09:55:50.554Z,45.00
2018-11-28T09:56:50.426Z,45.00
2018-11-28T09:57:50.452Z,45.00
2018-11-28T09:58:50.361Z,45.00
2018-11-28T09:59:50.362Z,45.00
2018-11-28T10:00:50.305Z,45.00
2018-11-28T10:01:50.380Z,45.00
2018-11-28T10:02:50.255Z,39.38
2018-11-28T10:03:50.213Z,39.38
2018-11-28T10:04:50.294Z,39.38
2018-11-28T10:05:50.153Z,39.38
2018-11-28T10:06:50.213Z,39.38
2018-11-28T10:07:50.102Z,39.38
2018-11-28T10:08:50.075Z,39.38
2018-11-28T10:09:50.051Z,39.38
2018-11-28T10:10:50.031Z,39.38
2018-11-28T10:11:49.983Z,39.38
2018-11-28T10:12:50.043Z,39.38
2018-11-28T10:13:49.939Z,39.38
2018-11-28T10:14:49.962Z,39.38
2018-11-28T10:15:49.871Z,45.00
2018-11-28T10:16:50.498Z,45.00
2018-11-28T10:17:49.814Z,45.00
2018-11-28T10:18:49.781Z,45.00
2018-11-28T10:19:49.752Z,45.00
2018-11-28T10:20:49.792Z,50.63
2018-11-28T10:21:49.697Z,50.63
2018-11-28T10:22:49.714Z,56.25
2018-11-28T10:23:49.711Z,61.88
2018-11-28T10:24:49.603Z,61.88
2018-11-28T10:25:49.638Z,67.50
2018-11-28T10:26:49.542Z,67.50
2018-11-28T10:27:49.656Z,67.50
2018-11-28T10:28:49.491Z,67.50
2018-11-28T10:29:49.552Z,73.13
2018-11-28T10:30:49.442Z,73.13
2018-11-28T10:31:49.463Z,78.75
2018-11-28T10:32:49.372Z,90.00
2018-11-28T10:33:49.373Z,90.00
2018-11-28T10:34:49.324Z,90.00
2018-11-28T10:35:49.391Z,84.38
2018-11-28T10:36:49.262Z,84.38
2018-11-28T10:37:49.307Z,95.63
2018-11-28T10:38:49.202Z,106.88
2018-11-28T10:39:49.173Z,118.13
2018-11-28T10:40:49.149Z,118.13
2018-11-28T10:41:49.222Z,112.50
2018-11-28T10:42:49.081Z,101.25
2018-11-28T10:43:49.143Z,95.63
2018-11-28T10:44:49.142Z,106.88
2018-11-28T10:45:49.001Z,101.25
2018-11-28T10:46:49.052Z,106.88
2018-11-28T10:47:48.936Z,101.25
2018-11-28T10:48:48.973Z,101.25
2018-11-28T10:49:48.974Z,101.25
2018-11-28T10:50:48.855Z,101.25
2018-11-28T10:51:50.379Z,95.63
2018-11-28T10:52:48.807Z,95.63
2018-11-28T10:53:48.803Z,95.63
2018-11-28T10:54:48.742Z,90.00
2018-11-28T10:55:48.813Z,90.00
2018-11-28T10:56:48.683Z,84.38
2018-11-28T10:57:48.723Z,84.38
2018-11-28T10:58:48.633Z,84.38
2018-11-28T10:59:48.673Z,78.75
2018-11-28T11:00:48.578Z,84.38
2018-11-28T11:01:48.655Z,84.38
2018-11-28T11:02:49.079Z,84.38
2018-11-28T11:03:48.573Z,90.00
2018-11-28T11:04:48.467Z,95.63
2018-11-28T11:05:48.439Z,101.25
2018-11-28T11:06:48.487Z,106.88
2018-11-28T11:07:48.372Z,118.13
2018-11-28T11:08:48.390Z,123.75
2018-11-28T11:09:48.322Z,123.75
2018-11-28T11:10:48.294Z,129.38
2018-11-28T11:11:48.268Z,135.00
2018-11-28T11:12:48.312Z,151.88
2018-11-28T11:13:48.201Z,168.75
2018-11-28T11:14:48.232Z,174.38
2018-11-28T11:15:48.154Z,180.00
2018-11-28T11:16:48.254Z,213.75
2018-11-28T11:17:48.092Z,286.88
2018-11-28T11:18:48.156Z,286.88
2018-11-28T11:19:48.032Z,286.88
2018-11-28T11:20:48.065Z,270.00
2018-11-28T11:21:47.986Z,264.38
2018-11-28T11:22:47.982Z,241.88
2018-11-28T11:23:47.924Z,247.50
2018-11-28T11:24:48.004Z,241.88
2018-11-28T11:25:47.881Z,230.63
2018-11-28T11:26:47.843Z,202.50
2018-11-28T11:27:47.812Z,185.63
2018-11-28T11:28:47.813Z,163.13
2018-11-28T11:29:47.764Z,140.63
2018-11-28T11:30:47.846Z,135.00
2018-11-28T11:31:47.709Z,129.38
2018-11-28T11:32:47.760Z,129.38
2018-11-28T11:33:47.660Z,135.00
2018-11-28T11:34:47.653Z,135.00
2018-11-28T11:35:47.599Z,140.63
2018-11-28T11:36:47.661Z,146.25
2018-11-28T11:37:47.571Z,151.88
2018-11-28T11:38:47.514Z,163.13
2018-11-28T11:39:47.593Z,180.00
2018-11-28T11:40:47.451Z,191.25
2018-11-28T11:41:47.495Z,174.38
2018-11-28T11:42:47.523Z,151.88
2018-11-28T11:43:47.381Z,146.25
2018-11-28T11:44:47.412Z,163.13
2018-11-28T11:45:47.353Z,163.13
2018-11-28T11:46:48.105Z,151.88
2018-11-28T11:47:47.264Z,146.25
2018-11-28T11:48:47.359Z,157.50
2018-11-28T11:49:47.212Z,185.63
2018-11-28T11:50:47.251Z,168.75
2018-11-28T11:51:47.154Z,163.13
2018-11-28T11:52:47.231Z,140.63
2018-11-28T11:53:47.097Z,135.00
2018-11-28T11:54:47.183Z,123.75
2018-11-28T11:55:47.042Z,118.13
2018-11-28T11:56:47.115Z,118.13
2018-11-28T11:57:46.986Z,112.50
2018-11-28T11:58:46.971Z,112.50
2018-11-28T11:59:47.021Z,112.50
2018-11-28T12:00:46.922Z,106.88
2018-11-28T12:01:46.923Z,106.88
2018-11-28T12:02:46.856Z,101.25
2018-11-28T12:03:46.830Z,101.25
2018-11-28T12:04:46.793Z,106.88
2018-11-28T12:05:46.852Z,112.50
2018-11-28T12:06:46.752Z,129.38
2018-11-28T12:07:46.768Z,140.63
2018-11-28T12:08:46.693Z,157.50
2018-11-28T12:09:46.778Z,168.75
2018-11-28T12:10:46.631Z,174.38
2018-11-28T12:11:46.683Z,157.50
2018-11-28T12:12:51.708Z,140.63
2018-11-28T12:13:46.591Z,129.38
2018-11-28T12:14:46.528Z,112.50
2018-11-28T12:15:46.508Z,101.25
2018-11-28T12:16:46.509Z,90.00
2018-11-28T12:17:46.524Z,84.38
2018-11-28T12:18:46.421Z,73.13
2018-11-28T12:19:46.382Z,67.50
2018-11-28T12:20:46.441Z,61.88
2018-11-28T12:21:46.344Z,56.25
2018-11-28T12:22:46.359Z,56.25
2018-11-28T12:23:46.298Z,50.63
2018-11-28T12:24:46.254Z,56.25
2018-11-28T12:25:46.240Z,56.25
2018-11-28T12:26:46.287Z,56.25
2018-11-28T12:27:46.185Z,56.25
2018-11-28T12:28:46.193Z,61.88
2018-11-28T12:29:46.202Z,61.88
2018-11-28T12:30:46.083Z,61.88
2018-11-28T12:31:46.111Z,67.50
2018-11-28T12:32:46.021Z,67.50
2018-11-28T12:33:46.023Z,67.50
2018-11-28T12:34:50.385Z,67.50
2018-11-28T12:35:46.127Z,67.50
2018-11-28T12:36:45.989Z,67.50
2018-11-28T12:37:46.040Z,67.50
2018-11-28T12:38:45.891Z,61.88
2018-11-28T12:39:45.852Z,67.50
2018-11-28T12:40:45.812Z,67.50
2018-11-28T12:41:45.783Z,61.88
2018-11-28T12:42:45.752Z,56.25
2018-11-28T12:43:45.780Z,56.25
2018-11-28T12:44:45.701Z,56.25
2018-11-28T12:45:45.674Z,56.25
2018-11-28T12:46:46.720Z,61.88
2018-11-28T12:47:45.622Z,67.50
2018-11-28T12:48:45.610Z,67.50
2018-11-28T12:49:45.559Z,73.13
2018-11-28T12:50:45.535Z,78.75
2018-11-28T12:51:45.502Z,84.38
2018-11-28T12:52:45.541Z,84.38
2018-11-28T12:53:45.448Z,90.00
2018-11-28T12:54:45.449Z,101.25
2018-11-28T12:55:45.392Z,95.63
2018-11-28T12:56:45.461Z,90.00
2018-11-28T12:57:45.347Z,90.00
2018-11-28T12:58:45.386Z,90.00
2018-11-28T12:59:45.292Z,84.38
2018-11-28T13:00:45.294Z,78.75
2018-11-28T13:01:45.230Z,73.13
2018-11-28T13:02:45.318Z,67.50
2018-11-28T13:03:45.179Z,61.88
2018-11-28T13:04:45.210Z,56.25
2018-11-28T13:05:45.127Z,50.63
2018-11-28T13:06:45.089Z,50.63
2018-11-28T13:07:45.070Z,45.00
2018-11-28T13:08:45.142Z,45.00
2018-11-28T13:09:45.010Z,45.00
2018-11-28T13:10:45.049Z,45.00
2018-11-28T13:11:44.961Z,45.00
2018-11-28T13:12:44.963Z,45.00
2018-11-28T13:13:44.897Z,45.00
2018-11-28T13:14:44.984Z,45.00
2018-11-28T13:15:44.879Z,45.00
2018-11-28T13:16:44.891Z,45.00
2018-11-28T13:17:44.790Z,45.00
2018-11-28T13:18:44.799Z,45.00
2018-11-28T13:19:44.745Z,45.00
2018-11-28T13:20:44.811Z,45.00
2018-11-28T13:21:44.687Z,45.00
2018-11-28T13:22:44.651Z,45.00
2018-11-28T13:23:44.740Z,45.00
2018-11-28T13:24:44.599Z,45.00
2018-11-28T13:25:44.650Z,45.00
2018-11-28T13:26:44.537Z,45.00
2018-11-28T13:27:44.518Z,45.00
2018-11-28T13:28:44.486Z,45.00
2018-11-28T13:29:44.575Z,45.00
2018-11-28T13:30:44.499Z,45.00
2018-11-28T13:31:44.479Z,45.00
2018-11-28T13:32:44.378Z,45.00
2018-11-28T13:33:44.396Z,45.00
2018-11-28T13:34:44.328Z,45.00
2018-11-28T13:35:44.414Z,39.38
2018-11-28T13:36:44.272Z,39.38
2018-11-28T13:37:44.320Z,39.38
2018-11-28T13:38:44.209Z,39.38
2018-11-28T13:39:44.220Z,33.75